createdAt,value
2023-03-02T00:02:56.534Z,98575.26
2023-03-02T00:06:06.629Z,98574.38
2023-03-02T00:08:59.353Z,98578.92
2023-03-02T00:12:22.790Z,98582.98
2023-03-02T00:15:42.669Z,98579.75
2023-03-02T00:18:36.573Z,98575.64
2023-03-02T00:21:27.799Z,98574.98
2023-03-02T00:24:19.544Z,98579.36
2023-03-02T00:27:51.119Z,98581.17
2023-03-02T00:31:40.521Z,98585.90
2023-03-02T00:34:19.622Z,98583.86
2023-03-02T00:37:11.438Z,98583.80
2023-03-02T00:40:43.167Z,98579.85
2023-03-02T00:43:38.060Z,98575.06
2023-03-02T00:46:16.815Z,98573.33
2023-03-02T00:49:48.380Z,98570.77
2023-03-02T00:52:24.481Z,98563.70
2023-03-02T00:55:39.353Z,98559.93
2023-03-02T00:58:53.843Z,98559.05
2023-03-02T01:01:31.310Z,98557.05
2023-03-02T01:04:25.123Z,98550.43
2023-03-02T01:07:39.029Z,98547.63
2023-03-02T01:10:38.827Z,98544.91
2023-03-02T01:13:30.452Z,98537.29
2023-03-02T01:16:53.116Z,98536.04
2023-03-02T01:20:22.628Z,98533.88
2023-03-02T01:23:41.878Z,98530.79
2023-03-02T01:26:30.938Z,98530.34
2023-03-02T01:29:42.348Z,98533.23
2023-03-02T01:32:54.309Z,98532.35
2023-03-02T01:36:43.505Z,98532.57
2023-03-02T01:39:55.601Z,98526.33
2023-03-02T01:42:42.628Z,98524.77
2023-03-02T01:46:12.194Z,98528.28
2023-03-02T01:49:42.140Z,98524.50
2023-03-02T01:53:15.281Z,98516.91
2023-03-02T01:56:24.551Z,98509.73
2023-03-02T01:59:45.208Z,98510.03
2023-03-02T02:02:19.265Z,98506.32
2023-03-02T02:04:55.091Z,98503.29
2023-03-02T02:07:29.193Z,98498.74
2023-03-02T02:10:21.634Z,98494.67
2023-03-02T02:13:35.772Z,98493.17
2023-03-02T02:16:35.874Z,98487.96
2023-03-02T02:19:30.464Z,98487.56
2023-03-02T02:23:06.595Z,98486.24
2023-03-02T02:26:12.013Z,98488.31
2023-03-02T02:29:31.928Z,98481.27
2023-03-02T02:32:32.171Z,98483.42
2023-03-02T02:35:39.002Z,98482.91
2023-03-02T02:39:10.665Z,98481.54
2023-03-02T02:42:07.043Z,98478.03
2023-03-02T02:45:28.453Z,98476.32
2023-03-02T02:48:17.955Z,98473.75
2023-03-02T02:51:06.526Z,98475.04
2023-03-02T02:54:37.703Z,98473.73
2023-03-02T02:57:31.592Z,98475.65
2023-03-02T03:01:00.678Z,98475.37
2023-03-02T03:03:59.944Z,98471.36
2023-03-02T03:07:06.834Z,98469.20
2023-03-02T03:09:47.699Z,98470.89
2023-03-02T03:13:24.757Z,98470.91
2023-03-02T03:16:03.875Z,98469.85
2023-03-02T03:19:06.644Z,98464.08
2023-03-02T03:21:37.418Z,98463.40
2023-03-02T03:25:16.938Z,98459.06
2023-03-02T03:28:18.233Z,98456.42
2023-03-02T03:31:20.551Z,98455.31
2023-03-02T03:34:20.436Z,98455.36
2023-03-02T03:37:50.487Z,98450.27
2023-03-02T03:40:39.852Z,98446.59
2023-03-02T03:43:40.513Z,98443.49
2023-03-02T03:46:36.818Z,98442.45
2023-03-02T03:49:37.237Z,98439.63
2023-03-02T03:52:46.099Z,98436.77
2023-03-02T03:56:35.478Z,98439.21
2023-03-02T04:00:06.159Z,98436.47
2023-03-02T04:03:35.041Z,98435.75
2023-03-02T04:06:37.962Z,98435.39
2023-03-02T04:09:47.623Z,98431.74
2023-03-02T04:12:36.131Z,98431.70
2023-03-02T04:15:33.921Z,98430.55
2023-03-02T04:18:52.601Z,98431.16
2023-03-02T04:22:06.071Z,98429.83
2023-03-02T04:24:57.925Z,98428.92
2023-03-02T04:28:00.731Z,98423.59
2023-03-02T04:31:15.443Z,98421.82
2023-03-02T04:37:41.733Z,98423.33
2023-03-02T04:41:23.418Z,98426.09
2023-03-02T04:44:35.436Z,98423.55
2023-03-02T04:47:33.829Z,98422.48
2023-03-02T04:50:15.191Z,98421.35
2023-03-02T04:53:13.520Z,98422.77
2023-03-02T04:56:05.006Z,98420.40
2023-03-02T04:59:06.888Z,98417.21
2023-03-02T05:02:56.059Z,98420.38
2023-03-02T05:05:47.693Z,98421.80
2023-03-02T05:09:04.789Z,98422.18
2023-03-02T05:12:13.602Z,98427.14
2023-03-02T05:14:55.366Z,98430.94
2023-03-02T05:17:35.249Z,98431.69
2023-03-02T05:20:37.785Z,98431.27
2023-03-02T05:23:25.581Z,98427.88
2023-03-02T05:26:44.269Z,98433.55
2023-03-02T05:29:33.326Z,98433.73
2023-03-02T05:32:26.598Z,98437.06
2023-03-02T05:35:07.937Z,98441.03
2023-03-02T05:38:16.999Z,98443.94
2023-03-02T05:40:53.488Z,98443.12
2023-03-02T05:43:27.246Z,98445.11
2023-03-02T05:46:22.141Z,98443.39
2023-03-02T05:49:05.011Z,98443.81
2023-03-02T05:51:58.920Z,98441.20
2023-03-02T05:54:49.870Z,98442.93
2023-03-02T05:57:38.345Z,98443.87
2023-03-02T06:00:08.657Z,98444.18
2023-03-02T06:02:57.162Z,98451.61
2023-03-02T06:05:51.068Z,98453.13
2023-03-02T06:08:43.478Z,98457.91
2023-03-02T06:11:18.003Z,98452.77
2023-03-02T06:14:12.657Z,98452.13
2023-03-02T06:16:52.167Z,98456.31
2023-03-02T06:19:43.516Z,98454.23
2023-03-02T06:22:32.049Z,98455.12
2023-03-02T06:25:25.100Z,98455.98
2023-03-02T06:28:22.153Z,98452.70
2023-03-02T06:30:51.336Z,98452.64
2023-03-02T06:33:30.447Z,98456.69
2023-03-02T06:36:28.881Z,98459.57
2023-03-02T06:39:19.013Z,98457.08
2023-03-02T06:42:48.100Z,98451.91
2023-03-02T06:45:38.238Z,98459.27
2023-03-02T06:48:12.199Z,98462.20
2023-03-02T06:50:53.508Z,98466.02
2023-03-02T06:54:24.049Z,98466.04
2023-03-02T06:57:22.108Z,98469.54
2023-03-02T07:00:11.008Z,98464.20
2023-03-02T07:02:47.325Z,98463.41
2023-03-02T07:05:50.116Z,98464.68
2023-03-02T07:08:21.722Z,98463.55
2023-03-02T07:11:43.825Z,98464.65
2023-03-02T07:26:28.087Z,98461.58
2023-03-02T07:28:59.360Z,98453.34
2023-03-02T07:31:27.881Z,98453.60
2023-03-02T07:34:21.369Z,98452.50
2023-03-02T07:37:08.009Z,98456.44
2023-03-02T07:40:00.796Z,98454.35
2023-03-02T07:42:47.114Z,98455.17
2023-03-02T07:45:21.467Z,98449.20
2023-03-02T07:48:13.242Z,98442.70
2023-03-02T07:50:41.802Z,98441.33
2023-03-02T07:53:13.372Z,98442.24
2023-03-02T07:55:54.762Z,98445.65
2023-03-02T07:59:33.832Z,98446.84
2023-03-02T08:02:39.775Z,98445.42
2023-03-02T08:05:18.519Z,98447.05
2023-03-02T08:07:47.494Z,98447.98
2023-03-02T08:10:39.664Z,98450.83
2023-03-02T08:13:33.954Z,98447.27
2023-03-02T08:16:23.142Z,98445.72
2023-03-02T08:18:54.612Z,98445.09
2023-03-02T08:21:49.323Z,98448.05
2023-03-02T08:24:41.770Z,98445.65
2023-03-02T08:27:17.959Z,98442.14
2023-03-02T08:29:59.040Z,98442.27
2023-03-02T08:32:27.832Z,98439.95
2023-03-02T08:35:34.168Z,98435.90
2023-03-02T08:38:45.700Z,98434.02
2023-03-02T08:42:26.163Z,98433.41
2023-03-02T08:45:53.122Z,98432.58
2023-03-02T08:48:57.695Z,98428.92
2023-03-02T08:51:57.190Z,98425.42
2023-03-02T08:55:06.900Z,98426.63
2023-03-02T08:57:49.753Z,98428.02
2023-03-02T09:00:44.744Z,98427.35
2023-03-02T09:03:56.184Z,98426.84
2023-03-02T09:06:47.324Z,98422.30
2023-03-02T09:09:59.996Z,98422.78
2023-03-02T09:13:16.815Z,98416.67
2023-03-02T09:16:27.463Z,98413.38
2023-03-02T09:19:44.513Z,98412.85
2023-03-02T09:23:07.982Z,98410.66
2023-03-02T09:26:16.922Z,98408.89
2023-03-02T09:29:26.127Z,98409.39
2023-03-02T09:33:05.251Z,98407.05
2023-03-02T09:35:55.961Z,98402.05
2023-03-02T09:39:09.472Z,98400.53
2023-03-02T09:42:25.417Z,98400.36
2023-03-02T09:45:41.256Z,98393.11
2023-03-02T09:49:20.050Z,98390.79
2023-03-02T09:52:16.508Z,98387.13
2023-03-02T09:55:25.523Z,98384.52
2023-03-02T09:58:44.990Z,98383.73
2023-03-02T10:01:55.222Z,98380.92
2023-03-02T10:05:03.137Z,98376.31
2023-03-02T10:08:12.621Z,98375.16
2023-03-02T10:11:47.434Z,98375.04
2023-03-02T10:15:11.920Z,98367.15
2023-03-02T10:19:04.392Z,98367.04
2023-03-02T10:22:33.718Z,98367.70
2023-03-02T10:25:59.384Z,98361.80
2023-03-02T10:29:11.545Z,98358.48
2023-03-02T10:43:43.500Z,98333.13
2023-03-02T10:47:11.194Z,98329.34
2023-03-02T10:49:47.613Z,98325.80
2023-03-02T10:52:59.772Z,98320.52
2023-03-02T10:56:32.923Z,98316.08
2023-03-02T10:59:37.269Z,98311.30
2023-03-02T11:02:38.795Z,98308.80
2023-03-02T11:05:44.382Z,98301.30
2023-03-02T11:08:46.940Z,98295.99
2023-03-02T11:11:50.949Z,98293.84
2023-03-02T11:14:39.490Z,98291.80
2023-03-02T11:17:37.172Z,98286.95
2023-03-02T11:21:17.772Z,98284.93
2023-03-02T11:24:59.600Z,98281.45
2023-03-02T11:28:30.657Z,98279.66
2023-03-02T11:31:39.168Z,98281.85
2023-03-02T11:35:31.679Z,98273.25
2023-03-02T11:39:21.139Z,98267.40
2023-03-02T12:19:05.854Z,98219.28
2023-03-02T12:22:34.431Z,98216.73
2023-03-02T12:26:00.813Z,98211.69
2023-03-02T12:29:19.196Z,98210.52
2023-03-02T12:32:54.156Z,98211.16
2023-03-02T12:36:06.800Z,98208.38
2023-03-02T12:41:59.917Z,98200.69
2023-03-02T12:48:51.020Z,98195.39
2023-03-02T12:51:55.807Z,98191.29
2023-03-02T12:54:37.295Z,98190.40
2023-03-02T13:04:59.739Z,98180.73
2023-03-02T13:08:25.492Z,98179.95
2023-03-02T13:11:49.257Z,98181.55
2023-03-02T13:14:35.036Z,98173.95
2023-03-02T13:18:04.345Z,98171.89
2023-03-02T13:21:41.965Z,98167.69
2023-03-02T13:29:14.433Z,98161.20
2023-03-02T13:32:29.595Z,98153.94
2023-03-02T13:35:31.476Z,98151.61
2023-03-02T13:39:20.314Z,98149.54
2023-03-02T13:43:00.061Z,98145.65
2023-03-02T13:46:00.392Z,98141.16
2023-03-02T13:48:33.537Z,98140.80
2023-03-02T13:59:00.695Z,98135.71
2023-03-02T14:01:36.779Z,98135.14
2023-03-02T14:04:23.183Z,98129.50
2023-03-02T14:07:09.477Z,98132.55
2023-03-02T14:09:50.774Z,98129.08
2023-03-02T14:12:46.652Z,98122.25
2023-03-02T14:16:01.432Z,98120.82
2023-03-02T14:19:30.259Z,98114.02
2023-03-02T14:23:06.813Z,98110.83
2023-03-02T14:25:57.438Z,98106.52
2023-03-02T14:29:04.665Z,98110.84
2023-03-02T14:32:54.643Z,98105.89
2023-03-02T14:36:10.759Z,98105.74
2023-03-02T14:39:18.937Z,98101.02
2023-03-02T14:42:32.756Z,98098.58
2023-03-02T14:45:44.832Z,98095.35
2023-03-02T14:48:40.694Z,98093.59
2023-03-02T14:52:19.680Z,98090.77
2023-03-02T14:55:52.185Z,98094.36
2023-03-02T14:59:13.437Z,98096.98
2023-03-02T15:02:55.379Z,98091.36
2023-03-02T15:06:01.780Z,98087.08
2023-03-02T15:08:59.222Z,98088.12
2023-03-02T15:12:18.296Z,98090.29
2023-03-02T15:15:57.410Z,98087.53
2023-03-02T15:18:45.655Z,98085.71
2023-03-02T15:21:48.462Z,98082.55
2023-03-02T15:24:38.136Z,98083.02
2023-03-02T15:27:18.924Z,98082.88
2023-03-02T15:29:51.086Z,98079.98
2023-03-02T15:32:31.260Z,98086.40
2023-03-02T15:35:15.381Z,98087.76
2023-03-02T15:38:28.392Z,98083.94
2023-03-02T15:41:48.336Z,98086.56
2023-03-02T15:45:37.589Z,98086.98
2023-03-02T15:48:43.326Z,98089.82
2023-03-02T15:51:52.969Z,98088.02
2023-03-02T15:55:02.069Z,98091.69
2023-03-02T15:57:40.262Z,98087.52
2023-03-02T16:00:54.257Z,98089.22
2023-03-02T16:03:44.275Z,98089.80
2023-03-02T16:07:05.245Z,98088.19
2023-03-02T16:10:26.764Z,98088.10
2023-03-02T16:13:41.254Z,98090.57
2023-03-02T16:17:20.655Z,98095.66
2023-03-02T16:20:51.195Z,98097.91
2023-03-02T16:24:29.509Z,98095.34
2023-03-02T16:27:31.304Z,98095.12
2023-03-02T16:31:02.978Z,98091.84
2023-03-02T16:33:41.338Z,98097.71
2023-03-02T16:36:32.858Z,98099.16
2023-03-02T16:39:23.407Z,98098.07
2023-03-02T16:42:50.373Z,98094.46
2023-03-02T16:46:14.506Z,98092.13
2023-03-02T16:49:45.518Z,98094.61
2023-03-02T16:53:34.996Z,98095.20
2023-03-02T16:57:24.372Z,98097.00
2023-03-02T17:00:55.469Z,98101.89
2023-03-02T17:04:27.450Z,98104.07
2023-03-02T17:08:17.104Z,98109.98
2023-03-02T17:11:29.708Z,98109.55
2023-03-02T17:18:50.124Z,98109.69
2023-03-02T18:08:13.575Z,98105.34
2023-03-02T18:18:10.950Z,98106.58
2023-03-02T18:21:43.236Z,98107.69
2023-03-02T18:25:24.274Z,98105.77
2023-03-02T18:28:55.889Z,98110.40
2023-03-02T18:32:45.333Z,98109.54
2023-03-02T18:36:15.731Z,98112.66
2023-03-02T18:39:38.242Z,98117.19
2023-03-02T18:46:47.583Z,98116.42
2023-03-02T18:50:08.397Z,98111.59
2023-03-02T18:53:39.355Z,98113.51
2023-03-02T19:03:11.307Z,98118.92
2023-03-02T19:06:21.361Z,98121.90
2023-03-02T19:09:43.165Z,98120.05
2023-03-02T19:13:33.306Z,98125.95
2023-03-02T19:17:20.911Z,98126.95
2023-03-02T19:19:58.918Z,98124.90
2023-03-02T19:23:09.421Z,98121.88
2023-03-02T19:26:38.184Z,98124.48
2023-03-02T19:30:20.197Z,98126.16
2023-03-02T19:33:41.296Z,98124.04
2023-03-02T19:40:49.260Z,98129.78
2023-03-02T19:43:23.128Z,98129.64
2023-03-02T19:46:52.632Z,98134.77
2023-03-02T19:49:34.555Z,98132.13
2023-03-02T19:52:36.949Z,98130.63
2023-03-02T19:55:37.660Z,98131.20
2023-03-02T19:59:01.488Z,98130.63
2023-03-02T20:02:30.904Z,98128.37
2023-03-02T20:05:40.699Z,98124.05
2023-03-02T20:09:19.368Z,98122.80
2023-03-02T20:12:11.650Z,98122.20
2023-03-02T20:15:24.284Z,98121.95
2023-03-02T20:19:04.384Z,98117.61
2023-03-02T20:22:50.337Z,98116.36
2023-03-02T20:26:32.544Z,98117.61
2023-03-02T20:30:14.687Z,98118.74
2023-03-02T20:33:30.152Z,98123.27
2023-03-02T20:37:19.483Z,98121.36
2023-03-02T20:40:49.257Z,98123.56
2023-03-02T20:44:38.642Z,98120.20
2023-03-02T20:48:11.424Z,98117.36
2023-03-02T21:10:16.703Z,98111.59
2023-03-02T21:13:28.418Z,98110.65
2023-03-02T21:16:48.694Z,98109.70
2023-03-02T21:20:08.748Z,98107.91
2023-03-02T21:23:26.805Z,98104.31
2023-03-02T21:26:45.591Z,98103.23
2023-03-02T21:30:17.656Z,98102.44
2023-03-02T21:34:06.852Z,98112.89
2023-03-02T21:37:56.060Z,98108.94
2023-03-02T21:41:35.163Z,98106.56
2023-03-02T21:45:47.131Z,98103.62
2023-03-02T21:49:36.752Z,98100.10
2023-03-02T21:53:21.096Z,98098.12
2023-03-02T21:56:56.043Z,98101.75
2023-03-02T22:00:47.879Z,98105.35
2023-03-02T22:04:17.796Z,98103.25
2023-03-02T22:22:31.291Z,98094.85
2023-03-02T22:26:19.188Z,98099.38
2023-03-02T22:30:09.367Z,98103.33
2023-03-02T22:33:59.055Z,98101.55
2023-03-02T22:37:40.361Z,98102.85
2023-03-02T22:41:11.332Z,98100.52
2023-03-02T22:44:51.774Z,98097.80
2023-03-02T22:48:34.836Z,98093.27
2023-03-02T23:04:02.126Z,98072.99
2023-03-02T23:07:41.152Z,98073.58
2023-03-02T23:11:03.029Z,98069.14
2023-03-02T23:15:01.420Z,98060.39
2023-03-02T23:18:53.899Z,98057.26
2023-03-02T23:22:19.275Z,98054.70
2023-03-02T23:25:50.599Z,98050.39
2023-03-02T23:29:29.504Z,98052.20
2023-03-02T23:44:06.997Z,98059.38
